Time,TemperatureF,DewpointF,PressureIn,WindDirection,WindDirectionDegrees,WindSpeedMPH,WindSpeedGustMPH,Humidity,HourlyPrecipIn,Conditions,Clouds,dailyrainin,SoftwareType,DateUTC
2013-05-05 00:02:00,61.0,23.0,29.96,ENE,73,0.0,0.0,23,0.00,,,0.00,,2013-05-05 05:02:00,
2013-05-05 00:12:00,61.0,23.0,29.96,ENE,73,0.0,0.0,23,0.00,,,0.00,,2013-05-05 05:12:00,
2013-05-05 00:21:00,60.0,22.0,29.96,ENE,73,0.0,0.0,23,0.00,,,0.00,,2013-05-05 05:21:00,
2013-05-05 00:31:00,60.0,22.0,29.96,ENE,73,0.0,0.0,23,0.00,,,0.00,,2013-05-05 05:31:00,
2013-05-05 00:42:00,60.0,22.0,29.96,ENE,73,0.0,0.0,23,0.00,,,0.00,,2013-05-05 05:42:00,
2013-05-05 00:52:00,58.0,22.0,29.95,ENE,73,0.0,0.0,25,0.00,,,0.00,,2013-05-05 05:52:00,
2013-05-05 01:01:00,58.0,22.0,29.95,ENE,73,0.0,0.0,25,0.00,,,0.00,,2013-05-05 06:01:00,
2013-05-05 01:12:00,58.0,22.0,29.95,ENE,73,0.0,0.0,25,0.00,,,0.00,,2013-05-05 06:12:00,
2013-05-05 01:21:00,56.0,21.0,29.97,ENE,73,0.0,0.0,25,0.00,,,0.00,,2013-05-05 06:21:00,
2013-05-05 01:32:00,56.0,21.0,29.97,ENE,73,0.0,0.0,25,0.00,,,0.00,,2013-05-05 06:32:00,
2013-05-05 01:42:00,56.0,21.0,29.97,ENE,73,0.0,0.0,25,0.00,,,0.00,,2013-05-05 06:42:00,
2013-05-05 01:52:00,55.0,21.0,29.96,ENE,73,0.0,0.0,26,0.00,,,0.00,,2013-05-05 06:52:00,
2013-05-05 02:01:00,55.0,21.0,29.96,ENE,73,0.0,0.0,26,0.00,,,0.00,,2013-05-05 07:01:00,
2013-05-05 02:11:00,55.0,21.0,29.96,ENE,73,0.0,0.0,26,0.00,,,0.00,,2013-05-05 07:11:00,
2013-05-05 02:21:00,54.0,19.0,29.98,SE,131,0.0,0.0,25,0.00,,,0.00,,2013-05-05 07:21:00,
2013-05-05 02:32:00,54.0,19.0,29.98,SE,131,0.0,0.0,25,0.00,,,0.00,,2013-05-05 07:32:00,
2013-05-05 02:42:00,54.0,19.0,29.98,SE,131,0.0,0.0,25,0.00,,,0.00,,2013-05-05 07:42:00,
2013-05-05 02:52:00,54.0,19.0,29.98,SE,131,0.0,0.0,25,0.00,,,0.00,,2013-05-05 07:52:00,
2013-05-05 03:02:00,54.0,19.0,29.98,SE,131,0.0,0.0,25,0.00,,,0.00,,2013-05-05 08:02:00,
2013-05-05 03:11:00,54.0,19.0,29.98,SE,131,0.0,0.0,25,0.00,,,0.00,,2013-05-05 08:11:00,
2013-05-05 03:21:00,53.0,18.0,29.98,SE,131,0.0,0.0,25,0.00,,,0.00,,2013-05-05 08:21:00,
2013-05-05 03:31:00,53.0,18.0,29.98,SE,131,0.0,0.0,25,0.00,,,0.00,,2013-05-05 08:31:00,
2013-05-05 03:42:00,53.0,18.0,29.98,SE,131,0.0,0.0,25,0.00,,,0.00,,2013-05-05 08:42:00,
2013-05-05 03:53:00,55.0,19.0,29.97,ENE,71,0.0,1.0,24,0.00,,,0.00,,2013-05-05 08:53:00,
2013-05-05 04:01:00,55.0,19.0,29.97,ENE,71,0.0,1.0,24,0.00,,,0.00,,2013-05-05 09:01:00,
2013-05-05 04:11:00,55.0,19.0,29.97,ENE,71,0.0,1.0,24,0.00,,,0.00,,2013-05-05 09:11:00,
2013-05-05 04:21:00,56.0,19.0,29.97,East,93,0.0,0.0,23,0.00,,,0.00,,2013-05-05 09:21:00,
2013-05-05 04:32:00,56.0,19.0,29.97,East,93,0.0,0.0,23,0.00,,,0.00,,2013-05-05 09:32:00,
2013-05-05 04:42:00,56.0,19.0,29.97,East,93,0.0,0.0,23,0.00,,,0.00,,2013-05-05 09:42:00,
2013-05-05 04:52:00,55.0,18.0,29.97,East,97,0.0,0.0,23,0.00,,,0.00,,2013-05-05 09:52:00,
2013-05-05 05:02:00,55.0,18.0,29.97,East,97,0.0,0.0,23,0.00,,,0.00,,2013-05-05 10:02:00,
2013-05-05 05:12:00,55.0,18.0,29.97,East,97,0.0,0.0,23,0.00,,,0.00,,2013-05-05 10:12:00,
2013-05-05 05:22:00,55.0,18.0,29.98,ENE,75,0.0,0.0,23,0.00,,,0.00,,2013-05-05 10:22:00,
2013-05-05 05:30:00,55.0,17.0,29.99,East,92,0.0,0.0,22,0.00,,,0.00,,2013-05-05 10:30:00,
2013-05-05 05:32:00,55.0,18.0,29.98,ENE,75,0.0,0.0,23,0.00,,,0.00,,2013-05-05 10:32:00,
2013-05-05 05:42:00,55.0,18.0,29.98,ENE,75,0.0,0.0,23,0.00,,,0.00,,2013-05-05 10:42:00,
2013-05-05 05:53:00,55.0,17.0,29.99,East,92,0.0,0.0,22,0.00,,,0.00,,2013-05-05 10:53:00,
2013-05-05 06:01:00,55.0,17.0,29.99,East,92,0.0,0.0,22,0.00,,,0.00,,2013-05-05 11:01:00,
2013-05-05 06:12:00,55.0,17.0,29.99,East,92,0.0,0.0,22,0.00,,,0.00,,2013-05-05 11:12:00,
2013-05-05 06:21:00,55.0,17.0,29.99,East,92,0.0,0.0,22,0.00,,,0.00,,2013-05-05 11:21:00,
2013-05-05 07:52:00,53.0,18.0,30.02,SSW,212,0.0,0.0,25,0.00,,,0.00,,2013-05-05 12:52:00,
2013-05-05 08:01:00,53.0,18.0,30.02,SSW,212,0.0,0.0,25,0.00,,,0.00,,2013-05-05 13:01:00,
2013-05-05 08:11:00,53.0,18.0,30.02,SSW,212,0.0,0.0,25,0.00,,,0.00,,2013-05-05 13:11:00,
2013-05-05 08:21:00,52.0,19.0,30.03,SSW,212,0.0,0.0,27,0.00,,,0.00,,2013-05-05 13:21:00,
2013-05-05 08:32:00,52.0,19.0,30.03,SSW,212,0.0,0.0,27,0.00,,,0.00,,2013-05-05 13:32:00,
2013-05-05 08:42:00,52.0,19.0,30.03,SSW,212,0.0,0.0,27,0.00,,,0.00,,2013-05-05 13:42:00,
2013-05-05 08:52:00,54.0,20.0,30.06,ESE,102,0.0,3.0,26,0.00,,,0.00,,2013-05-05 13:52:00,
2013-05-05 09:02:00,54.0,20.0,30.06,ESE,102,0.0,3.0,26,0.00,,,0.00,,2013-05-05 14:02:00,
2013-05-05 09:11:00,59.0,20.0,30.08,ESE,104,0.0,8.0,22,0.00,,,0.00,,2013-05-05 14:11:00,
2013-05-05 09:21:00,59.0,20.0,30.08,ESE,104,0.0,8.0,22,0.00,,,0.00,,2013-05-05 14:21:00,
2013-05-05 09:31:00,59.0,20.0,30.08,ESE,104,0.0,8.0,22,0.00,,,0.00,,2013-05-05 14:31:00,
2013-05-05 09:42:00,59.0,20.0,30.08,ESE,104,0.0,8.0,22,0.00,,,0.00,,2013-05-05 14:42:00,
2013-05-05 09:52:00,60.0,19.0,30.07,East,88,0.0,8.0,20,0.00,,,0.00,,2013-05-05 14:52:00,
2013-05-05 10:01:00,60.0,19.0,30.07,East,88,0.0,8.0,20,0.00,,,0.00,,2013-05-05 15:01:00,
2013-05-05 10:11:00,60.0,19.0,30.07,East,88,0.0,8.0,20,0.00,,,0.00,,2013-05-05 15:11:00,
2013-05-05 10:21:00,62.0,20.0,30.09,East,96,0.0,11.0,20,0.00,,,0.00,,2013-05-05 15:21:00,
2013-05-05 10:33:00,62.0,20.0,30.09,East,96,0.0,11.0,20,0.00,,,0.00,,2013-05-05 15:33:00,
2013-05-05 10:43:00,62.0,20.0,30.09,East,96,0.0,11.0,20,0.00,,,0.00,,2013-05-05 15:43:00,
2013-05-05 10:53:00,64.0,22.0,30.09,East,97,1.0,9.0,20,0.00,,,0.00,,2013-05-05 15:53:00,
2013-05-05 11:03:00,64.0,22.0,30.09,East,97,1.0,9.0,20,0.00,,,0.00,,2013-05-05 16:03:00,
2013-05-05 11:12:00,64.0,22.0,30.09,East,97,1.0,9.0,20,0.00,,,0.00,,2013-05-05 16:12:00,
2013-05-05 11:23:00,66.0,24.0,30.08,SE,133,0.0,14.0,20,0.00,,,0.00,,2013-05-05 16:23:00,
2013-05-05 11:32:00,66.0,24.0,30.08,SE,133,0.0,14.0,20,0.00,,,0.00,,2013-05-05 16:32:00,
2013-05-05 11:42:00,66.0,24.0,30.08,SE,133,0.0,14.0,20,0.00,,,0.00,,2013-05-05 16:42:00,
2013-05-05 11:53:00,68.0,23.0,30.09,East,97,2.0,9.0,18,0.00,,,0.00,,2013-05-05 16:53:00,
2013-05-05 12:02:00,68.0,23.0,30.09,East,97,2.0,9.0,18,0.00,,,0.00,,2013-05-05 17:02:00,
2013-05-05 12:12:00,68.0,23.0,30.09,East,97,2.0,9.0,18,0.00,,,0.00,,2013-05-05 17:12:00,
2013-05-05 12:23:00,69.0,22.0,30.10,ENE,59,0.0,8.0,17,0.00,,,0.00,,2013-05-05 17:23:00,
2013-05-05 12:32:00,69.0,22.0,30.10,ENE,59,0.0,8.0,17,0.00,,,0.00,,2013-05-05 17:32:00,
2013-05-05 12:42:00,69.0,22.0,30.10,ENE,59,0.0,8.0,17,0.00,,,0.00,,2013-05-05 17:42:00,
2013-05-05 12:52:00,71.0,24.0,30.10,East,79,4.0,10.0,17,0.00,,,0.00,,2013-05-05 17:52:00,
2013-05-05 13:01:00,71.0,24.0,30.10,East,79,4.0,10.0,17,0.00,,,0.00,,2013-05-05 18:01:00,
2013-05-05 13:12:00,71.0,24.0,30.10,East,79,4.0,10.0,17,0.00,,,0.00,,2013-05-05 18:12:00,
2013-05-05 13:21:00,72.0,25.0,30.08,SE,126,1.0,7.0,17,0.00,,,0.00,,2013-05-05 18:21:00,
2013-05-05 13:32:00,72.0,25.0,30.08,SE,126,1.0,7.0,17,0.00,,,0.00,,2013-05-05 18:32:00,
2013-05-05 13:42:00,72.0,25.0,30.08,SE,126,1.0,7.0,17,0.00,,,0.00,,2013-05-05 18:42:00,
2013-05-05 13:52:00,74.0,25.0,30.06,SE,127,2.0,11.0,16,0.00,,,0.00,,2013-05-05 18:52:00,
2013-05-05 14:01:00,74.0,25.0,30.06,SE,127,2.0,11.0,16,0.00,,,0.00,,2013-05-05 19:01:00,
2013-05-05 14:11:00,74.0,25.0,30.06,SE,127,2.0,11.0,16,0.00,,,0.00,,2013-05-05 19:11:00,
2013-05-05 14:21:00,74.0,23.0,30.06,NNE,30,0.0,11.0,15,0.00,,,0.00,,2013-05-05 19:21:00,
2013-05-05 14:32:00,74.0,23.0,30.06,NNE,30,0.0,11.0,15,0.00,,,0.00,,2013-05-05 19:32:00,
2013-05-05 14:42:00,74.0,23.0,30.06,NNE,30,0.0,11.0,15,0.00,,,0.00,,2013-05-05 19:42:00,
2013-05-05 14:52:00,75.0,24.0,30.05,ESE,114,2.0,11.0,15,0.00,,,0.00,,2013-05-05 19:52:00,
2013-05-05 15:01:00,75.0,24.0,30.05,ESE,114,2.0,11.0,15,0.00,,,0.00,,2013-05-05 20:01:00,
2013-05-05 15:11:00,75.0,24.0,30.05,ESE,114,2.0,11.0,15,0.00,,,0.00,,2013-05-05 20:11:00,
2013-05-05 15:21:00,75.0,24.0,30.04,East,88,1.0,14.0,15,0.00,,,0.00,,2013-05-05 20:21:00,
2013-05-05 15:31:00,75.0,24.0,30.04,East,88,1.0,14.0,15,0.00,,,0.00,,2013-05-05 20:31:00,
2013-05-05 15:42:00,75.0,24.0,30.04,East,88,1.0,14.0,15,0.00,,,0.00,,2013-05-05 20:42:00,
2013-05-05 15:52:00,76.0,23.0,30.04,ENE,59,3.0,12.0,14,0.00,,,0.00,,2013-05-05 20:52:00,
2013-05-05 16:02:00,76.0,23.0,30.04,ENE,59,3.0,12.0,14,0.00,,,0.00,,2013-05-05 21:02:00,
2013-05-05 16:11:00,76.0,23.0,30.04,ENE,59,3.0,12.0,14,0.00,,,0.00,,2013-05-05 21:11:00,
2013-05-05 16:21:00,77.0,24.0,30.01,NE,51,5.0,12.0,14,0.00,,,0.00,,2013-05-05 21:21:00,
2013-05-05 16:33:00,77.0,24.0,30.01,NE,51,5.0,12.0,14,0.00,,,0.00,,2013-05-05 21:33:00,
2013-05-05 16:42:00,77.0,24.0,30.01,NE,51,5.0,12.0,14,0.00,,,0.00,,2013-05-05 21:42:00,
2013-05-05 16:53:00,77.0,24.0,30.00,ESE,106,7.0,14.0,14,0.00,,,0.00,,2013-05-05 21:53:00,
2013-05-05 17:02:00,77.0,24.0,30.00,ESE,106,7.0,14.0,14,0.00,,,0.00,,2013-05-05 22:02:00,
2013-05-05 17:12:00,77.0,24.0,30.00,ESE,106,7.0,14.0,14,0.00,,,0.00,,2013-05-05 22:12:00,
2013-05-05 17:22:00,77.0,24.0,29.99,NE,55,4.0,13.0,14,0.00,,,0.00,,2013-05-05 22:22:00,
2013-05-05 17:33:00,77.0,24.0,29.99,NE,55,4.0,13.0,14,0.00,,,0.00,,2013-05-05 22:33:00,
2013-05-05 17:42:00,77.0,24.0,29.99,NE,55,4.0,13.0,14,0.00,,,0.00,,2013-05-05 22:42:00,
2013-05-05 17:52:00,77.0,26.0,29.98,NNE,16,2.0,12.0,15,0.00,,,0.00,,2013-05-05 22:52:00,
2013-05-05 18:02:00,77.0,26.0,29.98,NNE,16,2.0,12.0,15,0.00,,,0.00,,2013-05-05 23:02:00,
2013-05-05 18:11:00,77.0,26.0,29.98,NNE,16,2.0,12.0,15,0.00,,,0.00,,2013-05-05 23:11:00,
2013-05-05 18:21:00,76.0,25.0,29.99,SE,137,7.0,14.0,15,0.00,,,0.00,,2013-05-05 23:21:00,
2013-05-05 18:32:00,76.0,25.0,29.99,SE,137,7.0,14.0,15,0.00,,,0.00,,2013-05-05 23:32:00,
2013-05-05 18:42:00,76.0,25.0,29.99,SE,137,7.0,14.0,15,0.00,,,0.00,,2013-05-05 23:42:00,
2013-05-05 18:52:00,75.0,26.0,29.97,SE,130,7.0,13.0,16,0.00,,,0.00,,2013-05-05 23:52:00,
2013-05-05 19:01:00,75.0,26.0,29.97,SE,130,7.0,13.0,16,0.00,,,0.00,,2013-05-06 00:01:00,
2013-05-05 19:11:00,75.0,26.0,29.97,SE,130,7.0,13.0,16,0.00,,,0.00,,2013-05-06 00:11:00,
2013-05-05 19:21:00,74.0,25.0,29.98,East,93,1.0,9.0,16,0.00,,,0.00,,2013-05-06 00:21:00,
2013-05-05 19:31:00,74.0,25.0,29.98,East,93,1.0,9.0,16,0.00,,,0.00,,2013-05-06 00:31:00,
2013-05-05 19:42:00,74.0,25.0,29.98,East,93,1.0,9.0,16,0.00,,,0.00,,2013-05-06 00:42:00,
2013-05-05 19:52:00,73.0,24.0,29.97,ESE,123,2.0,11.0,16,0.00,,,0.00,,2013-05-06 00:52:00,
2013-05-05 20:01:00,73.0,24.0,29.97,ESE,123,2.0,11.0,16,0.00,,,0.00,,2013-05-06 01:01:00,
2013-05-05 20:11:00,73.0,24.0,29.97,ESE,123,2.0,11.0,16,0.00,,,0.00,,2013-05-06 01:11:00,
2013-05-05 20:21:00,70.0,25.0,29.97,East,83,1.0,8.0,18,0.00,,,0.00,,2013-05-06 01:21:00,
2013-05-05 20:31:00,70.0,25.0,29.97,East,83,1.0,8.0,18,0.00,,,0.00,,2013-05-06 01:31:00,
2013-05-05 20:42:00,70.0,25.0,29.97,East,83,1.0,8.0,18,0.00,,,0.00,,2013-05-06 01:42:00,
2013-05-05 20:52:00,67.0,25.0,29.99,ESE,113,1.0,9.0,20,0.00,,,0.00,,2013-05-06 01:52:00,
2013-05-05 21:01:00,67.0,25.0,29.99,ESE,113,1.0,9.0,20,0.00,,,0.00,,2013-05-06 02:01:00,
2013-05-05 21:12:00,67.0,25.0,29.99,ESE,113,1.0,9.0,20,0.00,,,0.00,,2013-05-06 02:12:00,
2013-05-05 21:21:00,65.0,24.0,29.98,ESE,116,0.0,7.0,21,0.00,,,0.00,,2013-05-06 02:21:00,
2013-05-05 21:32:00,65.0,24.0,29.98,ESE,116,0.0,7.0,21,0.00,,,0.00,,2013-05-06 02:32:00,
2013-05-05 21:42:00,65.0,24.0,29.98,ESE,116,0.0,7.0,21,0.00,,,0.00,,2013-05-06 02:42:00,
2013-05-05 21:52:00,64.0,24.0,30.00,East,93,0.0,1.0,22,0.00,,,0.00,,2013-05-06 02:52:00,
2013-05-05 22:01:00,64.0,24.0,30.00,East,93,0.0,1.0,22,0.00,,,0.00,,2013-05-06 03:01:00,
2013-05-05 22:11:00,64.0,24.0,30.00,East,93,0.0,1.0,22,0.00,,,0.00,,2013-05-06 03:11:00,
2013-05-05 22:22:00,63.0,25.0,29.99,East,95,0.0,6.0,23,0.00,,,0.00,,2013-05-06 03:22:00,
2013-05-05 22:33:00,63.0,25.0,29.99,East,95,0.0,6.0,23,0.00,,,0.00,,2013-05-06 03:33:00,
2013-05-05 22:42:00,63.0,25.0,29.99,East,95,0.0,6.0,23,0.00,,,0.00,,2013-05-06 03:42:00,
2013-05-05 22:52:00,62.0,25.0,30.00,ENE,68,0.0,1.0,24,0.00,,,0.00,,2013-05-06 03:52:00,
2013-05-05 23:02:00,62.0,25.0,30.00,ENE,68,0.0,1.0,24,0.00,,,0.00,,2013-05-06 04:02:00,
2013-05-05 23:12:00,62.0,25.0,30.00,ENE,68,0.0,1.0,24,0.00,,,0.00,,2013-05-06 04:12:00,
2013-05-05 23:23:00,61.0,26.0,30.01,ENE,72,0.0,0.0,26,0.00,,,0.00,,2013-05-06 04:23:00,
2013-05-05 23:32:00,61.0,26.0,30.01,ENE,72,0.0,0.0,26,0.00,,,0.00,,2013-05-06 04:32:00,
2013-05-05 23:43:00,61.0,26.0,30.01,ENE,72,0.0,0.0,26,0.00,,,0.00,,2013-05-06 04:43:00,
2013-05-05 23:53:00,61.0,27.0,30.02,SE,138,0.0,5.0,27,0.00,,,0.00,,2013-05-06 04:53:00,